createdAt,value
2017-09-17T00:00:29.871Z,1006.30
2017-09-17T00:01:24.912Z,1006.29
2017-09-17T00:02:25.908Z,1006.30
2017-09-17T00:03:25.964Z,1006.31
2017-09-17T00:04:20.947Z,1006.30
2017-09-17T00:05:21.482Z,1006.31
2017-09-17T00:06:15.044Z,1006.31
2017-09-17T00:07:15.083Z,1006.31
2017-09-17T00:08:10.076Z,1006.29
2017-09-17T00:09:05.140Z,1006.32
2017-09-17T00:10:05.126Z,1006.27
2017-09-17T00:11:00.209Z,1006.27
2017-09-17T00:11:55.205Z,1006.29
2017-09-17T00:12:55.221Z,1006.29
2017-09-17T00:13:50.313Z,1006.26
2017-09-17T00:14:45.350Z,1006.27
2017-09-17T00:15:46.645Z,1006.24
2017-09-17T00:16:46.444Z,1006.27
2017-09-17T00:17:46.419Z,1006.25
2017-09-17T00:18:41.410Z,1006.25
2017-09-17T00:19:35.814Z,1006.28
2017-09-17T00:20:35.508Z,1006.28
2017-09-17T00:21:30.492Z,1006.27
2017-09-17T00:22:30.562Z,1006.22
2017-09-17T00:23:24.523Z,1006.22
2017-09-17T00:24:24.620Z,1006.22
2017-09-17T00:25:19.597Z,1006.18
2017-09-17T00:26:14.648Z,1006.20
2017-09-17T00:27:14.706Z,1006.20
2017-09-17T00:28:09.856Z,1006.24
2017-09-17T00:29:04.784Z,1006.18
2017-09-17T00:30:05.780Z,1006.17
2017-09-17T00:31:05.940Z,1006.17
2017-09-17T00:32:05.803Z,1006.17
2017-09-17T00:33:00.852Z,1006.21
2017-09-17T00:33:54.886Z,1006.19
2017-09-17T00:34:55.212Z,1006.16
2017-09-17T00:35:49.921Z,1006.20
2017-09-17T00:36:49.955Z,1006.15
2017-09-17T00:37:44.008Z,1006.19
2017-09-17T00:38:44.018Z,1006.15
2017-09-17T00:39:39.221Z,1006.14
2017-09-17T00:40:34.122Z,1006.13
2017-09-17T00:41:34.103Z,1006.14
2017-09-17T00:42:29.169Z,1006.17
2017-09-17T00:43:24.183Z,1006.10
2017-09-17T00:44:25.354Z,1006.13
2017-09-17T00:45:25.264Z,1006.14
2017-09-17T00:46:25.363Z,1006.14
2017-09-17T00:47:20.410Z,1006.11
2017-09-17T00:48:14.338Z,1006.13
2017-09-17T00:49:14.816Z,1006.11
2017-09-17T00:50:09.427Z,1006.12
2017-09-17T00:51:09.400Z,1006.13
2017-09-17T00:52:03.455Z,1006.13
2017-09-17T00:53:03.514Z,1006.11
2017-09-17T00:53:58.486Z,1006.10
2017-09-17T00:54:53.517Z,1006.11
2017-09-17T00:55:53.546Z,1006.09
2017-09-17T00:56:48.672Z,1006.07
2017-09-17T00:57:43.634Z,1006.09
2017-09-17T00:58:44.662Z,1006.18
2017-09-17T00:59:44.790Z,1006.16
2017-09-17T01:00:44.719Z,1006.17
2017-09-17T01:01:39.763Z,1006.18
2017-09-17T01:02:33.958Z,1006.15
2017-09-17T01:03:33.879Z,1006.16
2017-09-17T01:04:28.823Z,1006.18
2017-09-17T01:05:28.905Z,1006.17
2017-09-17T01:06:22.900Z,1006.19
2017-09-17T01:07:22.955Z,1006.19
2017-09-17T01:08:17.997Z,1006.16
2017-09-17T01:09:18.086Z,1006.17
2017-09-17T01:10:18.043Z,1006.17
2017-09-17T01:11:24.024Z,1006.17
2017-09-17T01:12:19.213Z,1006.17
2017-09-17T01:13:13.145Z,1006.18
2017-09-17T01:14:13.197Z,1006.19
2017-09-17T01:15:13.144Z,1006.20
2017-09-17T01:16:08.324Z,1006.15
2017-09-17T01:17:02.256Z,1006.14
2017-09-17T01:18:02.254Z,1006.15
2017-09-17T01:18:57.374Z,1006.20
2017-09-17T01:19:57.371Z,1006.14
2017-09-17T01:20:57.485Z,1006.19
2017-09-17T01:22:03.423Z,1006.15
2017-09-17T01:22:58.448Z,1006.16
2017-09-17T01:23:58.505Z,1006.13
2017-09-17T01:24:58.466Z,1006.15
2017-09-17T01:25:58.497Z,1006.14
2017-09-17T01:26:53.481Z,1006.15
2017-09-17T01:27:59.533Z,1006.12
2017-09-17T01:28:54.566Z,1006.12
2017-09-17T01:29:48.585Z,1006.16
2017-09-17T01:30:48.635Z,1006.10
2017-09-17T01:31:48.735Z,1006.12
2017-09-17T01:32:43.655Z,1006.12
2017-09-17T01:33:37.768Z,1006.17
2017-09-17T01:34:37.722Z,1006.13
2017-09-17T01:35:32.731Z,1006.15
2017-09-17T01:36:27.860Z,1006.13
2017-09-17T01:37:28.801Z,1006.15
2017-09-17T01:38:28.796Z,1006.18
2017-09-17T01:39:28.889Z,1006.17
2017-09-17T01:40:23.910Z,1006.17
2017-09-17T01:41:18.049Z,1006.13
2017-09-17T01:42:17.932Z,1006.16
2017-09-17T01:43:12.979Z,1006.16
2017-09-17T01:44:13.101Z,1006.12
2017-09-17T01:45:07.028Z,1006.15
2017-09-17T01:46:07.098Z,1006.14
2017-09-17T01:47:02.096Z,1006.11
2017-09-17T01:47:57.310Z,1006.14
2017-09-17T01:48:57.200Z,1006.09
2017-09-17T01:49:52.235Z,1006.12
2017-09-17T01:50:47.233Z,1006.09
2017-09-17T01:51:53.262Z,1006.08
2017-09-17T01:52:47.280Z,1006.09
2017-09-17T01:53:47.396Z,1006.09
2017-09-17T01:54:42.766Z,1006.13
2017-09-17T01:55:42.390Z,1006.13
2017-09-17T01:56:36.399Z,1006.10
2017-09-17T01:57:36.433Z,1006.10
2017-09-17T01:58:31.491Z,1006.08
2017-09-17T01:59:26.621Z,1006.11
2017-09-17T02:00:26.593Z,1006.14
2017-09-17T02:01:21.721Z,1006.10
2017-09-17T02:02:16.699Z,1006.08
2017-09-17T02:03:16.615Z,1006.10
2017-09-17T02:04:11.817Z,1006.11
2017-09-17T02:05:11.688Z,1006.10
2017-09-17T02:06:11.696Z,1006.08
2017-09-17T02:07:17.722Z,1006.08
2017-09-17T02:08:12.748Z,1006.07
2017-09-17T02:09:12.727Z,1006.07
2017-09-17T02:10:07.820Z,1006.10
2017-09-17T02:11:03.615Z,1006.09
2017-09-17T02:12:02.847Z,1006.13
2017-09-17T02:12:57.926Z,1006.11
2017-09-17T02:13:52.905Z,1006.09
2017-09-17T02:14:54.044Z,1006.08
2017-09-17T02:15:54.914Z,1006.11
2017-09-17T02:16:50.011Z,1006.09
2017-09-17T02:17:44.009Z,1006.11
2017-09-17T02:18:45.073Z,1006.11
2017-09-17T02:19:40.109Z,1006.12
2017-09-17T02:20:34.136Z,1006.14
2017-09-17T02:21:34.175Z,1006.18
2017-09-17T02:22:29.339Z,1006.18
2017-09-17T02:23:29.257Z,1006.19
2017-09-17T02:24:23.198Z,1006.18
2017-09-17T02:25:23.291Z,1006.16
2017-09-17T02:26:18.322Z,1006.20
2017-09-17T02:27:18.335Z,1006.21
2017-09-17T02:28:18.386Z,1006.20
2017-09-17T02:29:18.793Z,1006.18
2017-09-17T02:30:18.390Z,1006.20
2017-09-17T02:31:24.425Z,1006.19
2017-09-17T02:32:19.446Z,1006.18
2017-09-17T02:33:19.881Z,1006.20
2017-09-17T02:34:14.518Z,1006.19
2017-09-17T02:35:09.510Z,1006.22
2017-09-17T02:36:10.543Z,1006.21
2017-09-17T02:37:10.625Z,1006.23
2017-09-17T02:38:10.606Z,1006.19
2017-09-17T02:39:05.700Z,1006.22
2017-09-17T02:39:59.730Z,1006.23
2017-09-17T02:40:59.717Z,1006.26
2017-09-17T02:41:54.773Z,1006.22
2017-09-17T02:42:54.741Z,1006.27
2017-09-17T02:43:54.835Z,1006.26
2017-09-17T02:44:55.041Z,1006.25
2017-09-17T02:45:48.820Z,1006.25
2017-09-17T02:46:48.891Z,1006.24
2017-09-17T02:47:43.892Z,1006.24
2017-09-17T02:48:43.903Z,1006.21
2017-09-17T02:49:37.950Z,1006.22
2017-09-17T02:50:38.019Z,1006.24
2017-09-17T02:51:33.012Z,1006.22
2017-09-17T02:52:28.057Z,1006.21
2017-09-17T02:53:29.079Z,1006.22
2017-09-17T02:54:29.224Z,1006.21
2017-09-17T02:55:24.131Z,1006.19
2017-09-17T02:56:30.186Z,1006.16
2017-09-17T02:57:25.187Z,1006.15
2017-09-17T02:58:19.271Z,1006.17
2017-09-17T02:59:19.185Z,1006.22
2017-09-17T03:00:19.319Z,1006.16
2017-09-17T03:01:14.322Z,1006.19
2017-09-17T03:02:08.387Z,1006.18
2017-09-17T03:03:08.344Z,1006.16
2017-09-17T03:04:03.438Z,1006.17
2017-09-17T03:05:09.431Z,1006.19
2017-09-17T03:06:04.469Z,1006.18
2017-09-17T03:06:58.458Z,1006.21
2017-09-17T03:07:59.636Z,1006.19
2017-09-17T03:08:54.552Z,1006.19
2017-09-17T03:09:48.558Z,1006.21
2017-09-17T03:10:48.631Z,1006.19
2017-09-17T03:11:43.662Z,1006.20
2017-09-17T03:12:43.768Z,1006.18
2017-09-17T03:13:38.016Z,1006.18
2017-09-17T03:14:37.733Z,1006.16
2017-09-17T03:15:32.739Z,1006.16
2017-09-17T03:16:27.786Z,1006.17
2017-09-17T03:17:27.847Z,1006.13
2017-09-17T03:18:33.843Z,1006.14
2017-09-17T03:19:34.058Z,1006.16
2017-09-17T03:20:27.885Z,1006.12
2017-09-17T03:21:27.917Z,1006.14
2017-09-17T03:22:27.927Z,1006.14
2017-09-17T03:23:22.977Z,1006.11
2017-09-17T03:24:17.215Z,1006.09
2017-09-17T03:25:18.503Z,1006.09
2017-09-17T03:26:18.068Z,1006.10
2017-09-17T03:27:18.124Z,1006.08
2017-09-17T03:28:13.143Z,1006.12
2017-09-17T03:29:13.136Z,1006.15
2017-09-17T03:30:13.186Z,1006.12
2017-09-17T03:31:07.246Z,1006.15
2017-09-17T03:32:08.235Z,1006.16
2017-09-17T03:33:08.232Z,1006.16
2017-09-17T03:34:08.330Z,1006.19
2017-09-17T03:35:03.832Z,1006.18
2017-09-17T03:35:57.325Z,1006.19
2017-09-17T03:36:57.421Z,1006.18
2017-09-17T03:37:52.416Z,1006.21
2017-09-17T03:38:47.487Z,1006.19
2017-09-17T03:39:47.518Z,1006.18
2017-09-17T03:40:42.519Z,1006.25
2017-09-17T03:41:37.528Z,1006.21
2017-09-17T03:42:37.613Z,1006.22
2017-09-17T03:43:32.674Z,1006.22
2017-09-17T03:44:27.629Z,1006.20
2017-09-17T03:45:28.628Z,1006.19
2017-09-17T03:46:28.684Z,1006.19
2017-09-17T03:47:28.683Z,1006.19
2017-09-17T03:48:23.818Z,1006.17
2017-09-17T03:49:18.220Z,1006.23
2017-09-17T03:50:17.785Z,1006.25
2017-09-17T03:51:12.840Z,1006.21
2017-09-17T03:52:12.844Z,1006.23
2017-09-17T03:53:06.919Z,1006.24
2017-09-17T03:54:07.556Z,1006.20
2017-09-17T03:55:02.153Z,1006.22
2017-09-17T03:55:56.996Z,1006.21
2017-09-17T03:56:58.011Z,1006.23
2017-09-17T03:57:58.038Z,1006.20
2017-09-17T03:58:53.053Z,1006.17
2017-09-17T03:59:53.114Z,1006.14
2017-09-17T04:00:47.143Z,1006.16
2017-09-17T04:01:47.330Z,1006.14
2017-09-17T04:02:42.201Z,1006.15
2017-09-17T04:03:37.246Z,1006.15
2017-09-17T04:04:37.215Z,1006.19
2017-09-17T04:05:32.326Z,1006.11
2017-09-17T04:06:27.304Z,1006.16
2017-09-17T04:07:27.337Z,1006.17
2017-09-17T04:08:22.395Z,1006.14
2017-09-17T04:09:17.707Z,1006.14
2017-09-17T04:10:18.649Z,1006.14
2017-09-17T04:11:18.446Z,1006.14
2017-09-17T04:12:18.484Z,1006.15
2017-09-17T04:13:13.495Z,1006.18
2017-09-17T04:14:07.505Z,1006.18
2017-09-17T04:15:07.909Z,1006.16
2017-09-17T04:16:02.586Z,1006.17
2017-09-17T04:17:02.605Z,1006.20
2017-09-17T04:17:56.655Z,1006.16
2017-09-17T04:18:56.705Z,1006.15
2017-09-17T04:19:51.731Z,1006.15
2017-09-17T04:20:46.736Z,1006.17
2017-09-17T04:21:46.751Z,1006.16
2017-09-17T04:22:41.842Z,1006.14
2017-09-17T04:23:36.852Z,1006.16
2017-09-17T04:24:37.846Z,1006.18
2017-09-17T04:25:37.878Z,1006.17
2017-09-17T04:26:37.904Z,1006.18
2017-09-17T04:27:32.918Z,1006.16
2017-09-17T04:28:27.033Z,1006.22
2017-09-17T04:29:26.996Z,1006.23
2017-09-17T04:30:22.059Z,1006.29
2017-09-17T04:31:22.039Z,1006.24
2017-09-17T04:32:16.137Z,1006.28
2017-09-17T04:33:16.574Z,1006.30
2017-09-17T04:34:11.104Z,1006.30
2017-09-17T04:35:06.752Z,1006.29
2017-09-17T04:36:06.166Z,1006.32
2017-09-17T04:37:01.264Z,1006.35
2017-09-17T04:38:01.240Z,1006.39
2017-09-17T04:39:01.271Z,1006.38
2017-09-17T04:40:01.347Z,1006.38
2017-09-17T04:40:55.277Z,1006.36
2017-09-17T04:41:55.334Z,1006.37
2017-09-17T04:42:50.412Z,1006.35
2017-09-17T04:43:45.463Z,1006.40
2017-09-17T04:44:51.464Z,1006.37
2017-09-17T04:45:45.520Z,1006.38
2017-09-17T04:46:45.556Z,1006.36
2017-09-17T04:47:40.502Z,1006.39
2017-09-17T04:48:40.547Z,1006.38
2017-09-17T04:49:34.593Z,1006.41
2017-09-17T04:50:34.634Z,1006.41
2017-09-17T04:51:29.698Z,1006.38
2017-09-17T04:52:24.710Z,1006.41
2017-09-17T04:53:24.720Z,1006.46
2017-09-17T04:54:20.197Z,1006.41
2017-09-17T04:55:14.795Z,1006.39
2017-09-17T04:56:15.813Z,1006.42
2017-09-17T04:57:16.320Z,1006.43
2017-09-17T04:58:10.875Z,1006.42
2017-09-17T04:59:16.968Z,1006.43
2017-09-17T05:00:11.967Z,1006.44
2017-09-17T05:01:05.934Z,1006.48
2017-09-17T05:02:06.000Z,1006.49
2017-09-17T05:03:01.069Z,1006.51
2017-09-17T05:04:01.042Z,1006.53
2017-09-17T05:05:02.048Z,1006.53
2017-09-17T05:06:02.016Z,1006.59
2017-09-17T05:07:02.336Z,1006.62
2017-09-17T05:08:02.154Z,1006.63
2017-09-17T05:09:02.163Z,1006.61
2017-09-17T05:10:02.253Z,1006.64
2017-09-17T05:11:02.203Z,1006.65
2017-09-17T05:12:02.245Z,1006.65
2017-09-17T05:13:08.326Z,1006.65
2017-09-17T05:14:08.280Z,1006.72
2017-09-17T05:15:09.417Z,1006.77
2017-09-17T05:16:10.330Z,1006.73
2017-09-17T05:17:04.400Z,1006.72
2017-09-17T05:18:04.415Z,1006.74
2017-09-17T05:18:59.635Z,1006.75
2017-09-17T05:19:59.444Z,1006.75
2017-09-17T05:21:00.468Z,1006.77
2017-09-17T05:22:01.582Z,1006.78
2017-09-17T05:23:01.603Z,1006.81
2017-09-17T05:24:01.609Z,1006.78
2017-09-17T05:24:55.595Z,1006.77
2017-09-17T05:25:55.653Z,1006.79
2017-09-17T05:26:50.626Z,1006.79
2017-09-17T05:27:45.704Z,1006.77
2017-09-17T05:28:45.708Z,1006.77
2017-09-17T05:29:45.778Z,1006.79
2017-09-17T05:30:45.757Z,1006.79
2017-09-17T05:31:45.802Z,1006.77
2017-09-17T05:32:39.909Z,1006.77
2017-09-17T05:33:40.820Z,1006.78
2017-09-17T05:34:40.868Z,1006.79
2017-09-17T05:35:36.006Z,1006.79
2017-09-17T05:36:36.066Z,1006.77
2017-09-17T05:37:36.976Z,1006.80
2017-09-17T05:38:37.087Z,1006.82
2017-09-17T05:39:37.008Z,1006.82
2017-09-17T05:40:37.023Z,1006.80
2017-09-17T05:41:37.034Z,1006.84
2017-09-17T05:42:37.232Z,1006.82
2017-09-17T05:43:37.191Z,1006.80
2017-09-17T05:44:37.143Z,1006.83
2017-09-17T05:45:37.240Z,1006.83
2017-09-17T05:46:37.192Z,1006.84
2017-09-17T05:47:37.232Z,1006.81
2017-09-17T05:48:37.289Z,1006.83
2017-09-17T05:49:43.321Z,1006.85
2017-09-17T05:50:38.397Z,1006.81
2017-09-17T05:51:32.328Z,1006.81
2017-09-17T05:52:33.558Z,1006.85
2017-09-17T05:53:34.445Z,1006.84
2017-09-17T05:54:29.354Z,1006.90
2017-09-17T05:55:29.536Z,1006.88
2017-09-17T05:56:29.534Z,1006.89
2017-09-17T05:57:29.563Z,1006.90
2017-09-17T05:58:29.554Z,1006.86
2017-09-17T05:59:29.537Z,1006.91
2017-09-17T06:00:29.650Z,1006.85
2017-09-17T06:01:29.638Z,1006.87
2017-09-17T06:02:29.683Z,1006.87
2017-09-17T06:03:29.732Z,1006.84
2017-09-17T06:04:29.788Z,1006.87
2017-09-17T06:05:29.764Z,1006.91
2017-09-17T06:06:29.805Z,1006.85
2017-09-17T06:07:29.848Z,1006.92
2017-09-17T06:08:29.847Z,1006.81
2017-09-17T06:09:29.841Z,1006.84
2017-09-17T06:10:36.192Z,1006.86
2017-09-17T06:11:31.045Z,1006.87
2017-09-17T06:12:24.978Z,1006.86
2017-09-17T06:13:25.010Z,1006.89
2017-09-17T06:14:20.048Z,1006.91
2017-09-17T06:15:15.064Z,1006.90
2017-09-17T06:16:15.152Z,1006.94
2017-09-17T06:17:10.142Z,1006.95
2017-09-17T06:18:05.181Z,1006.96
2017-09-17T06:18:59.230Z,1007.02
2017-09-17T06:20:00.302Z,1007.04
2017-09-17T06:20:55.342Z,1007.06
2017-09-17T06:21:55.345Z,1007.06
2017-09-17T06:22:55.331Z,1007.05
2017-09-17T06:23:55.385Z,1007.04
2017-09-17T06:24:55.660Z,1007.10
2017-09-17T06:25:55.430Z,1007.03
2017-09-17T06:26:55.472Z,1007.08
2017-09-17T06:27:55.943Z,1007.11
2017-09-17T06:28:55.528Z,1007.12
2017-09-17T06:29:55.579Z,1007.17
2017-09-17T06:31:01.647Z,1007.17
2017-09-17T06:31:56.666Z,1007.17
2017-09-17T06:32:56.704Z,1007.16
2017-09-17T06:33:56.755Z,1007.15
2017-09-17T06:34:56.760Z,1007.14
2017-09-17T06:35:56.804Z,1007.15
2017-09-17T06:36:50.891Z,1007.18
2017-09-17T06:37:39.129Z,1007.13
2017-09-17T06:38:26.948Z,1007.14
2017-09-17T06:39:22.213Z,1007.14
2017-09-17T06:40:17.026Z,1007.12
2017-09-17T06:41:17.076Z,1007.14
2017-09-17T06:42:12.554Z,1007.14
2017-09-17T06:43:07.176Z,1007.12
2017-09-17T06:44:07.124Z,1007.14
2017-09-17T06:45:02.214Z,1007.18
2017-09-17T06:45:57.202Z,1007.17
2017-09-17T06:46:51.292Z,1007.18
2017-09-17T06:47:51.319Z,1007.21
2017-09-17T06:48:46.334Z,1007.22
2017-09-17T06:49:46.454Z,1007.23
2017-09-17T06:50:47.480Z,1007.24
2017-09-17T06:51:41.544Z,1007.25
2017-09-17T06:52:41.645Z,1007.30
2017-09-17T06:53:36.922Z,1007.29
2017-09-17T06:54:31.583Z,1007.28
2017-09-17T06:55:25.655Z,1007.28
2017-09-17T06:56:25.868Z,1007.28
2017-09-17T06:57:20.742Z,1007.27
2017-09-17T06:58:15.730Z,1007.26
2017-09-17T06:59:15.829Z,1007.32
2017-09-17T07:00:10.945Z,1007.27
2017-09-17T07:01:05.917Z,1007.30
2017-09-17T07:02:00.367Z,1007.29
2017-09-17T07:03:00.975Z,1007.24
2017-09-17T07:03:56.407Z,1007.27
2017-09-17T07:04:56.104Z,1007.28
2017-09-17T07:05:56.110Z,1007.22
2017-09-17T07:06:44.197Z,1007.25
2017-09-17T07:07:38.461Z,1007.23
2017-09-17T07:08:39.258Z,1007.21
2017-09-17T07:09:39.340Z,1007.31
2017-09-17T07:10:39.338Z,1007.29
2017-09-17T07:11:39.418Z,1007.29
2017-09-17T07:12:39.373Z,1007.30
2017-09-17T07:13:39.803Z,1007.36
2017-09-17T07:14:39.489Z,1007.35
2017-09-17T07:15:39.678Z,1007.40
2017-09-17T07:16:27.621Z,1007.42
2017-09-17T07:17:15.664Z,1007.42
2017-09-17T07:18:09.769Z,1007.43
2017-09-17T07:19:09.897Z,1007.45
2017-09-17T07:20:04.044Z,1007.44
2017-09-17T07:20:59.078Z,1007.47
2017-09-17T07:21:48.119Z,1007.45
2017-09-17T07:22:36.937Z,1007.40
2017-09-17T07:23:32.125Z,1007.40
2017-09-17T07:24:31.984Z,1007.37
2017-09-17T07:25:38.383Z,1007.36
2017-09-17T07:26:38.314Z,1007.38
2017-09-17T07:27:39.230Z,1007.33
2017-09-17T07:28:40.438Z,1007.34
2017-09-17T07:29:29.670Z,1007.37
2017-09-17T07:30:23.330Z,1007.41
2017-09-17T07:31:18.329Z,1007.45
2017-09-17T07:32:13.367Z,1007.43
2017-09-17T07:33:02.409Z,1007.41
2017-09-17T07:34:02.456Z,1007.46
2017-09-17T07:34:57.518Z,1007.50
2017-09-17T07:35:57.717Z,1007.49
2017-09-17T07:36:57.712Z,1007.50
2017-09-17T07:37:57.788Z,1007.49
2017-09-17T07:38:51.699Z,1007.49
2017-09-17T07:39:51.713Z,1007.50
2017-09-17T07:40:46.763Z,1007.54
2017-09-17T07:41:40.829Z,1007.50
2017-09-17T07:42:29.079Z,1007.49
2017-09-17T07:43:24.252Z,1007.53
2017-09-17T07:44:18.267Z,1007.49
2017-09-17T07:45:07.277Z,1007.55
2017-09-17T07:46:02.419Z,1007.56
2017-09-17T07:47:02.460Z,1007.56
2017-09-17T07:47:57.432Z,1007.50
2017-09-17T07:48:52.511Z,1007.57
2017-09-17T07:49:52.499Z,1007.57
2017-09-17T07:50:47.564Z,1007.56
2017-09-17T07:51:42.616Z,1007.53
2017-09-17T07:52:36.699Z,1007.54
2017-09-17T07:53:24.359Z,1007.50
2017-09-17T07:54:12.494Z,1007.55
2017-09-17T07:55:01.452Z,1007.58
2017-09-17T07:55:49.528Z,1007.58
2017-09-17T07:56:38.971Z,1007.60
2017-09-17T07:57:26.647Z,1007.58
2017-09-17T07:58:14.649Z,1007.58
2017-09-17T07:59:08.625Z,1007.56
2017-09-17T07:59:57.759Z,1007.57
2017-09-17T08:00:52.756Z,1007.58
2017-09-17T08:01:52.885Z,1007.65
2017-09-17T08:02:41.870Z,1007.61
2017-09-17T08:03:37.180Z,1007.52
2017-09-17T08:04:32.149Z,1007.57
2017-09-17T08:05:20.029Z,1007.56
2017-09-17T08:06:20.396Z,1007.57
2017-09-17T08:07:15.377Z,1007.50
2017-09-17T08:08:04.513Z,1007.55
2017-09-17T08:08:52.440Z,1007.58
2017-09-17T08:09:47.592Z,1007.53
2017-09-17T08:10:35.228Z,1007.52
2017-09-17T08:11:23.321Z,1007.51
2017-09-17T08:12:24.364Z,1007.52
2017-09-17T08:13:24.354Z,1007.51
2017-09-17T08:14:19.421Z,1007.46
2017-09-17T08:15:14.484Z,1007.49
2017-09-17T08:16:08.528Z,1007.43
2017-09-17T08:17:02.978Z,1007.48
2017-09-17T08:17:50.751Z,1007.51
2017-09-17T08:18:39.784Z,1007.45
2017-09-17T08:19:35.014Z,1007.43
2017-09-17T08:20:23.957Z,1007.46
2017-09-17T08:21:17.860Z,1007.41
2017-09-17T08:22:11.865Z,1007.46
2017-09-17T08:23:07.168Z,1007.40
2017-09-17T08:23:55.180Z,1007.44
2017-09-17T08:24:44.282Z,1007.48
2017-09-17T08:25:38.375Z,1007.48
2017-09-17T08:26:38.193Z,1007.45
2017-09-17T08:27:44.148Z,1007.46
2017-09-17T08:28:44.439Z,1007.48
2017-09-17T08:29:33.598Z,1007.47
2017-09-17T08:30:21.255Z,1007.41
2017-09-17T08:31:21.597Z,1007.45
2017-09-17T08:32:15.478Z,1007.40
2017-09-17T08:33:03.546Z,1007.44
2017-09-17T08:34:03.482Z,1007.45
2017-09-17T08:34:58.916Z,1007.45
2017-09-17T08:35:52.955Z,1007.48
2017-09-17T08:36:47.839Z,1007.43
2017-09-17T08:37:36.840Z,1007.45
2017-09-17T08:38:30.792Z,1007.43
2017-09-17T08:39:25.180Z,1007.45
2017-09-17T08:40:14.194Z,1007.45
2017-09-17T08:41:09.251Z,1007.44
2017-09-17T08:41:57.329Z,1007.47
2017-09-17T08:42:57.362Z,1007.49
2017-09-17T08:43:46.398Z,1007.49
2017-09-17T08:44:46.431Z,1007.48
2017-09-17T08:45:41.537Z,1007.41
2017-09-17T08:46:29.551Z,1007.38
2017-09-17T08:47:23.538Z,1007.40
2017-09-17T08:48:23.706Z,1007.42
2017-09-17T08:49:18.746Z,1007.41
2017-09-17T08:50:12.765Z,1007.55
2017-09-17T08:51:07.778Z,1007.58
2017-09-17T08:51:55.808Z,1007.57
2017-09-17T08:52:55.904Z,1007.53
2017-09-17T08:53:55.967Z,1007.52
2017-09-17T08:54:45.024Z,1007.51
2017-09-17T08:55:39.041Z,1007.46
2017-09-17T08:56:33.038Z,1007.46
2017-09-17T08:57:27.206Z,1007.40
2017-09-17T08:58:21.208Z,1007.45
2017-09-17T08:59:21.285Z,1007.36
2017-09-17T09:00:16.279Z,1007.46
2017-09-17T09:01:04.290Z,1007.46
2017-09-17T09:01:58.431Z,1007.41
2017-09-17T09:02:52.411Z,1007.42
2017-09-17T09:03:46.513Z,1007.43
2017-09-17T09:04:46.605Z,1007.34
2017-09-17T09:05:41.609Z,1007.36
2017-09-17T09:06:35.662Z,1007.39
2017-09-17T09:07:29.729Z,1007.42
2017-09-17T09:08:24.749Z,1007.36
2017-09-17T09:09:18.847Z,1007.41
2017-09-17T09:10:12.852Z,1007.39
2017-09-17T09:11:07.919Z,1007.36
2017-09-17T09:12:02.980Z,1007.41
2017-09-17T09:12:57.027Z,1007.38
2017-09-17T09:13:51.087Z,1007.23
2017-09-17T09:14:45.058Z,1007.28
2017-09-17T09:15:45.156Z,1007.31
2017-09-17T09:16:39.237Z,1007.33
2017-09-17T09:17:39.246Z,1007.44
2017-09-17T09:18:39.350Z,1007.44
2017-09-17T09:19:27.489Z,1007.47
2017-09-17T09:20:21.370Z,1007.29
2017-09-17T09:21:15.496Z,1007.33
2017-09-17T09:22:09.548Z,1007.39
2017-09-17T09:23:04.246Z,1007.38
2017-09-17T09:23:58.240Z,1007.31
2017-09-17T09:24:47.381Z,1007.32
2017-09-17T09:25:35.350Z,1007.29
2017-09-17T09:26:30.688Z,1007.31
2017-09-17T09:27:18.634Z,1007.32
2017-09-17T09:28:12.976Z,1007.29
2017-09-17T09:29:06.800Z,1007.40
2017-09-17T09:30:00.982Z,1007.39
2017-09-17T09:30:54.893Z,1007.42
2017-09-17T09:31:48.894Z,1007.40
2017-09-17T09:32:36.980Z,1007.34
2017-09-17T09:33:24.843Z,1007.29
2017-09-17T09:34:20.315Z,1007.28
2017-09-17T09:35:14.009Z,1007.31
2017-09-17T09:36:02.192Z,1007.25
2017-09-17T09:36:50.535Z,1007.26
2017-09-17T09:37:45.454Z,1007.23
2017-09-17T09:38:33.193Z,1007.23
2017-09-17T09:39:33.611Z,1007.25
2017-09-17T09:40:21.687Z,1007.25
2017-09-17T09:41:10.730Z,1007.23
2017-09-17T09:42:04.939Z,1007.22
2017-09-17T09:42:53.871Z,1007.20
2017-09-17T09:43:48.873Z,1007.17
2017-09-17T09:44:37.974Z,1007.18
2017-09-17T09:45:33.030Z,1007.17
2017-09-17T09:46:27.070Z,1007.10
2017-09-17T09:47:15.161Z,1007.07
2017-09-17T09:48:03.231Z,1007.12
2017-09-17T09:48:58.233Z,1007.08
2017-09-17T09:49:52.278Z,1007.09
2017-09-17T09:50:41.370Z,1007.09
2017-09-17T09:51:35.415Z,1007.08
2017-09-17T09:52:30.539Z,1007.05
2017-09-17T09:53:30.488Z,1006.93
2017-09-17T09:54:25.583Z,1007.04
2017-09-17T09:55:13.621Z,1007.02
2017-09-17T09:56:07.706Z,1007.18
2017-09-17T09:57:01.747Z,1007.09
2017-09-17T09:58:01.981Z,1007.12
2017-09-17T09:58:49.820Z,1007.12
2017-09-17T09:59:43.891Z,1006.94
2017-09-17T10:00:38.937Z,1007.11
2017-09-17T10:01:33.067Z,1007.05
2017-09-17T10:02:27.014Z,1006.98
2017-09-17T10:03:21.115Z,1007.12
2017-09-17T10:04:16.164Z,1007.20
2017-09-17T10:05:09.838Z,1007.19
2017-09-17T10:05:59.247Z,1007.16
2017-09-17T10:06:53.359Z,1007.15
2017-09-17T10:07:48.362Z,1007.09
2017-09-17T10:08:36.482Z,1007.10
2017-09-17T10:09:30.532Z,1007.02
2017-09-17T10:10:24.515Z,1007.08
2017-09-17T10:11:18.595Z,1007.05
2017-09-17T10:12:13.662Z,1007.13
2017-09-17T10:13:02.710Z,1007.17
2017-09-17T10:13:57.916Z,1007.13
2017-09-17T10:14:51.825Z,1007.19
2017-09-17T10:15:45.891Z,1007.17
2017-09-17T10:16:39.895Z,1007.14
2017-09-17T10:17:33.996Z,1007.00
2017-09-17T10:18:22.067Z,1007.00
2017-09-17T10:19:22.124Z,1006.97
2017-09-17T10:20:11.175Z,1006.97
2017-09-17T10:21:05.224Z,1006.92
2017-09-17T10:22:05.213Z,1006.95
2017-09-17T10:22:59.280Z,1006.98
2017-09-17T10:24:00.309Z,1006.97
2017-09-17T10:24:54.543Z,1006.98
2017-09-17T10:25:49.400Z,1006.99
2017-09-17T10:26:43.472Z,1007.02
2017-09-17T10:27:43.569Z,1007.01
2017-09-17T10:28:32.479Z,1006.99
2017-09-17T10:29:21.641Z,1006.97
2017-09-17T10:30:15.646Z,1007.14
2017-09-17T10:31:10.450Z,1007.10
2017-09-17T10:32:04.562Z,1007.08
2017-09-17T10:32:59.490Z,1007.03
2017-09-17T10:33:53.609Z,1006.98
2017-09-17T10:34:48.004Z,1007.02
2017-09-17T10:35:42.073Z,1007.00
2017-09-17T10:36:37.151Z,1006.94
2017-09-17T10:37:31.167Z,1006.94
2017-09-17T10:38:19.279Z,1006.87
2017-09-17T10:39:13.278Z,1006.92
2017-09-17T10:40:01.313Z,1006.88
2017-09-17T10:40:50.457Z,1006.93
2017-09-17T10:41:45.508Z,1006.94
2017-09-17T10:42:39.652Z,1006.91
2017-09-17T10:43:34.565Z,1006.82
2017-09-17T10:44:29.666Z,1006.98
2017-09-17T10:45:18.601Z,1006.96
2017-09-17T10:46:18.319Z,1007.02
2017-09-17T10:47:12.367Z,1006.98
2017-09-17T10:48:13.811Z,1006.91
2017-09-17T10:49:13.873Z,1007.01
2017-09-17T10:50:02.973Z,1006.89
2017-09-17T10:50:56.996Z,1006.90
2017-09-17T10:51:52.018Z,1006.84
2017-09-17T10:52:46.112Z,1006.88
2017-09-17T10:53:46.182Z,1006.94
2017-09-17T10:54:41.232Z,1006.98
2017-09-17T10:55:30.247Z,1006.97
2017-09-17T10:56:30.265Z,1007.06
2017-09-17T10:57:24.324Z,1007.10
2017-09-17T10:58:24.314Z,1007.24
2017-09-17T10:59:19.470Z,1007.18
2017-09-17T11:00:13.472Z,1007.20
2017-09-17T11:01:07.602Z,1007.03
2017-09-17T11:02:02.579Z,1006.97
2017-09-17T11:03:02.695Z,1006.97
2017-09-17T11:04:02.772Z,1006.90
2017-09-17T11:04:51.807Z,1006.91
2017-09-17T11:05:51.779Z,1006.90
2017-09-17T11:06:51.850Z,1006.92
2017-09-17T11:07:45.894Z,1007.02
2017-09-17T11:08:45.939Z,1007.07
2017-09-17T11:09:45.995Z,1007.09
2017-09-17T11:10:45.991Z,1007.03
2017-09-17T11:11:40.111Z,1007.07
2017-09-17T11:12:29.134Z,1007.09
2017-09-17T11:13:29.119Z,1007.12
2017-09-17T11:14:23.264Z,1007.09
2017-09-17T11:15:17.288Z,1007.10
2017-09-17T11:16:06.306Z,1007.02
2017-09-17T11:16:55.369Z,1007.04
2017-09-17T11:17:49.360Z,1007.03
2017-09-17T11:18:38.474Z,1007.02
2017-09-17T11:19:38.540Z,1007.06
2017-09-17T11:20:32.512Z,1007.05
2017-09-17T11:21:26.544Z,1007.05
2017-09-17T11:22:15.626Z,1007.06